createdAt,value
2019-03-04T00:02:07.819Z,12.90
2019-03-04T00:04:36.222Z,12.90
2019-03-04T00:07:04.632Z,12.90
2019-03-04T00:09:33.202Z,12.90
2019-03-04T00:12:01.604Z,12.90
2019-03-04T00:14:30.003Z,12.90
2019-03-04T00:16:58.719Z,12.90
2019-03-04T00:19:27.196Z,12.90
2019-03-04T00:21:55.602Z,12.90
2019-03-04T00:24:24.034Z,12.90
2019-03-04T00:26:52.434Z,12.90
2019-03-04T00:29:21.025Z,12.80
2019-03-04T00:31:49.461Z,12.80
2019-03-04T00:34:17.861Z,12.80
2019-03-04T00:36:46.262Z,12.90
2019-03-04T00:39:14.769Z,12.90
2019-03-04T00:41:43.166Z,12.90
2019-03-04T00:44:11.593Z,13.00
2019-03-04T00:46:39.991Z,13.20
2019-03-04T00:49:08.380Z,13.20
2019-03-04T00:51:36.825Z,13.20
2019-03-04T00:54:05.218Z,13.30
2019-03-04T00:56:33.708Z,13.30
2019-03-04T00:59:02.843Z,13.30
2019-03-04T01:01:31.246Z,13.20
2019-03-04T01:03:59.645Z,13.20
2019-03-04T01:06:28.056Z,13.20
2019-03-04T01:08:56.460Z,13.20
2019-03-04T01:11:24.856Z,13.20
2019-03-04T01:13:53.286Z,13.20
2019-03-04T01:16:21.681Z,13.20
2019-03-04T01:18:50.113Z,13.10
2019-03-04T01:21:18.510Z,13.00
2019-03-04T01:23:46.926Z,13.00
2019-03-04T01:26:15.582Z,13.00
2019-03-04T01:28:44.000Z,13.00
2019-03-04T01:31:12.385Z,12.90
2019-03-04T01:33:40.814Z,12.90
2019-03-04T01:36:09.206Z,12.90
2019-03-04T01:38:37.642Z,12.80
2019-03-04T01:41:06.041Z,12.70
2019-03-04T01:43:34.446Z,12.70
2019-03-04T01:46:02.872Z,12.70
2019-03-04T01:48:31.272Z,12.70
2019-03-04T01:50:59.768Z,12.70
2019-03-04T01:53:28.222Z,12.70
2019-03-04T01:55:56.622Z,12.70
2019-03-04T01:58:25.090Z,12.70
2019-03-04T02:00:53.623Z,12.70
2019-03-04T02:03:22.016Z,12.70
2019-03-04T02:05:50.408Z,12.80
2019-03-04T02:08:19.402Z,12.80
2019-03-04T02:10:47.798Z,12.70
2019-03-04T02:13:16.201Z,12.70
2019-03-04T02:15:44.643Z,12.70
2019-03-04T02:18:13.049Z,12.70
2019-03-04T02:20:41.492Z,12.70
2019-03-04T02:23:09.915Z,12.70
2019-03-04T02:25:46.951Z,12.70
2019-03-04T02:28:15.373Z,12.80
2019-03-04T02:30:43.796Z,12.80
2019-03-04T02:33:12.286Z,12.70
2019-03-04T02:35:40.721Z,12.70
2019-03-04T02:38:09.148Z,12.70
2019-03-04T02:40:37.547Z,12.70
2019-03-04T02:43:05.999Z,12.70
2019-03-04T02:45:34.536Z,12.70
2019-03-04T02:48:02.940Z,12.70
2019-03-04T02:50:31.431Z,12.60
2019-03-04T02:52:59.976Z,12.60
2019-03-04T02:55:28.369Z,12.50
2019-03-04T02:57:56.807Z,12.50
2019-03-04T03:00:25.268Z,12.50
2019-03-04T03:02:53.701Z,12.50
2019-03-04T03:05:22.097Z,12.50
2019-03-04T03:07:50.513Z,12.60
2019-03-04T03:10:18.905Z,12.60
2019-03-04T03:12:47.311Z,12.50
2019-03-04T03:15:18.437Z,12.60
2019-03-04T03:17:46.856Z,12.60
2019-03-04T03:20:16.230Z,12.60
2019-03-04T03:22:44.742Z,12.60
2019-03-04T03:25:14.730Z,12.60
2019-03-04T03:27:43.142Z,12.60
2019-03-04T03:30:19.118Z,12.60
2019-03-04T03:32:47.542Z,12.60
2019-03-04T03:35:15.931Z,12.60
2019-03-04T03:37:44.349Z,12.60
2019-03-04T03:40:17.681Z,12.60
2019-03-04T03:42:46.081Z,12.70
2019-03-04T03:45:14.805Z,12.60
2019-03-04T03:47:43.226Z,12.60
2019-03-04T03:50:15.030Z,12.60
2019-03-04T03:52:43.477Z,12.50
2019-03-04T03:55:13.766Z,12.50
2019-03-04T03:57:42.176Z,12.50
2019-03-04T04:00:16.692Z,12.50
2019-03-04T04:02:45.093Z,12.50
2019-03-04T04:05:13.601Z,12.50
2019-03-04T04:07:42.073Z,12.50
2019-03-04T04:10:14.569Z,12.50
2019-03-04T04:12:43.058Z,12.50
2019-03-04T04:15:13.209Z,12.40
2019-03-04T04:17:42.466Z,12.50
2019-03-04T04:20:11.964Z,12.50
2019-03-04T04:22:40.413Z,12.50
2019-03-04T04:25:10.834Z,12.50
2019-03-04T04:27:39.587Z,12.40
2019-03-04T04:30:29.937Z,12.40
2019-03-04T04:32:58.378Z,12.40
2019-03-04T04:35:26.776Z,12.40
2019-03-04T04:37:55.184Z,12.40
2019-03-04T04:40:23.611Z,12.40
2019-03-04T04:42:52.009Z,12.50
2019-03-04T04:45:20.423Z,12.60
2019-03-04T04:47:48.824Z,12.70
2019-03-04T04:50:31.693Z,12.70
2019-03-04T04:53:00.096Z,12.70
2019-03-04T04:55:28.490Z,12.70
2019-03-04T04:57:56.904Z,12.70
2019-03-04T05:00:25.468Z,12.70
2019-03-04T05:02:53.863Z,12.70
2019-03-04T05:05:22.287Z,12.70
2019-03-04T05:07:50.686Z,12.70
2019-03-04T05:10:21.184Z,12.70
2019-03-04T05:12:49.624Z,12.80
2019-03-04T05:15:18.088Z,12.70
2019-03-04T05:17:47.463Z,12.70
2019-03-04T05:20:18.345Z,12.70
2019-03-04T05:22:46.741Z,12.60
2019-03-04T05:25:15.208Z,12.60
2019-03-04T05:27:43.646Z,12.70
2019-03-04T05:30:15.055Z,12.70
2019-03-04T05:32:43.479Z,12.80
2019-03-04T05:35:12.064Z,12.70
2019-03-04T05:37:40.522Z,12.80
2019-03-04T05:40:14.520Z,12.80
2019-03-04T05:42:42.984Z,12.90
2019-03-04T05:45:18.005Z,12.90
2019-03-04T05:47:46.492Z,12.90
2019-03-04T05:50:25.612Z,12.90
2019-03-04T05:52:54.010Z,13.00
2019-03-04T05:55:22.401Z,13.00
2019-03-04T05:57:50.825Z,13.00
2019-03-04T06:00:22.903Z,13.00
2019-03-04T06:02:53.760Z,13.00
2019-03-04T06:05:22.359Z,13.00
2019-03-04T06:07:58.472Z,13.10
2019-03-04T06:10:26.896Z,13.10
2019-03-04T06:12:55.963Z,13.00
2019-03-04T06:15:24.464Z,13.00
2019-03-04T06:17:52.848Z,13.00
2019-03-04T06:20:21.281Z,12.90
2019-03-04T06:22:49.676Z,12.90
2019-03-04T06:25:21.136Z,12.90
2019-03-04T06:27:49.570Z,12.90
2019-03-04T06:30:26.910Z,13.00
2019-03-04T06:32:55.319Z,13.00
2019-03-04T06:35:24.480Z,12.90
2019-03-04T06:37:52.887Z,12.90
2019-03-04T06:40:21.650Z,12.90
2019-03-04T06:42:50.370Z,12.80
2019-03-04T06:45:20.017Z,12.80
2019-03-04T06:47:48.426Z,12.70
2019-03-04T06:50:51.357Z,12.70
2019-03-04T06:53:32.101Z,12.70
2019-03-04T06:56:06.468Z,12.60
2019-03-04T06:58:40.453Z,12.60
2019-03-04T07:01:11.920Z,12.60
2019-03-04T07:03:41.053Z,12.60
2019-03-04T07:06:09.471Z,12.50
2019-03-04T07:08:40.986Z,12.40
2019-03-04T07:11:09.386Z,11.60
2019-03-04T07:13:37.781Z,10.90
2019-03-04T07:16:06.200Z,10.50
2019-03-04T07:18:34.596Z,10.20
2019-03-04T07:21:03.051Z,10.10
2019-03-04T07:23:31.481Z,9.90
2019-03-04T07:26:00.592Z,9.80
2019-03-04T07:28:29.014Z,9.80
2019-03-04T07:30:57.427Z,9.70
2019-03-04T07:33:25.814Z,9.80
2019-03-04T07:35:54.322Z,9.80
2019-03-04T07:38:25.781Z,9.80
2019-03-04T07:40:54.241Z,9.80
2019-03-04T07:43:22.665Z,9.90
2019-03-04T07:45:51.075Z,9.90
2019-03-04T07:48:19.470Z,10.00
2019-03-04T07:50:47.897Z,10.10
2019-03-04T07:53:16.294Z,10.00
2019-03-04T07:55:44.687Z,9.70
2019-03-04T07:58:13.113Z,9.50
2019-03-04T08:00:41.505Z,9.30
2019-03-04T08:03:09.895Z,9.20
2019-03-04T08:05:38.314Z,9.20
2019-03-04T08:08:12.299Z,9.30
2019-03-04T08:11:06.390Z,9.40
2019-03-04T08:13:55.322Z,9.40
2019-03-04T08:16:23.729Z,9.50
2019-03-04T08:18:52.120Z,9.60
2019-03-04T08:21:20.548Z,9.80
2019-03-04T08:23:48.940Z,9.90
2019-03-04T08:26:17.328Z,10.10
2019-03-04T08:28:46.052Z,10.30
2019-03-04T08:31:14.726Z,10.60
2019-03-04T08:33:43.129Z,10.80
2019-03-04T08:36:11.557Z,10.90
2019-03-04T08:38:39.953Z,11.00
2019-03-04T08:41:08.354Z,10.90
2019-03-04T08:43:36.784Z,10.70
2019-03-04T08:46:05.197Z,10.70
2019-03-04T08:48:33.591Z,10.70
2019-03-04T08:51:02.448Z,10.80
2019-03-04T08:53:31.105Z,11.00
2019-03-04T08:55:59.559Z,11.00
2019-03-04T08:58:27.996Z,11.20
2019-03-04T09:00:56.381Z,11.30
2019-03-04T09:03:24.803Z,11.40
2019-03-04T09:05:53.197Z,11.50
2019-03-04T09:08:21.585Z,11.60
2019-03-04T09:10:50.005Z,11.70
2019-03-04T09:13:18.412Z,11.80
2019-03-04T09:15:46.809Z,12.00
2019-03-04T09:18:15.284Z,12.00
2019-03-04T09:20:43.734Z,12.00
2019-03-04T09:23:12.207Z,11.90
2019-03-04T09:25:46.132Z,11.80
2019-03-04T09:28:14.530Z,11.70
2019-03-04T09:30:42.932Z,11.70
2019-03-04T09:33:11.348Z,11.70
2019-03-04T09:35:39.755Z,11.70
2019-03-04T09:38:08.152Z,11.80
2019-03-04T09:40:36.808Z,11.80
2019-03-04T09:43:06.645Z,11.80
2019-03-04T09:45:38.838Z,11.80
2019-03-04T09:48:05.620Z,11.70
2019-03-04T09:50:34.017Z,11.60
2019-03-04T09:53:02.417Z,11.50
2019-03-04T09:55:30.836Z,11.60
2019-03-04T09:57:59.323Z,11.60
2019-03-04T10:00:39.172Z,11.60
2019-03-04T10:03:16.788Z,11.50
2019-03-04T10:05:50.796Z,11.50
2019-03-04T10:08:32.384Z,11.50
2019-03-04T10:10:58.585Z,11.50
2019-03-04T10:13:45.225Z,11.50
2019-03-04T10:16:39.284Z,11.50
2019-03-04T10:19:13.668Z,11.60
2019-03-04T10:21:50.809Z,11.70
2019-03-04T10:24:28.189Z,11.80
2019-03-04T10:27:17.240Z,11.90
2019-03-04T10:30:05.201Z,12.10
2019-03-04T10:32:36.752Z,12.40
2019-03-04T10:35:14.409Z,12.60
2019-03-04T10:38:10.409Z,12.80
2019-03-04T10:41:05.248Z,12.70
2019-03-04T10:43:55.833Z,12.70
2019-03-04T10:46:33.320Z,12.80
2019-03-04T10:49:01.724Z,12.90
2019-03-04T10:51:30.143Z,13.00
2019-03-04T10:53:58.589Z,13.00
2019-03-04T10:56:26.988Z,13.00
2019-03-04T10:58:55.385Z,12.90
2019-03-04T11:01:30.479Z,13.00
2019-03-04T11:03:53.952Z,13.10
2019-03-04T11:06:22.344Z,13.30
2019-03-04T11:08:50.755Z,13.50
2019-03-04T11:11:29.275Z,13.40
2019-03-04T11:13:49.629Z,13.30
2019-03-04T11:16:18.020Z,13.30
2019-03-04T11:18:46.673Z,13.50
2019-03-04T11:21:15.073Z,13.80
2019-03-04T11:23:43.465Z,14.00
2019-03-04T11:26:12.067Z,13.90
2019-03-04T11:28:40.468Z,14.00
2019-03-04T11:31:08.857Z,14.10
2019-03-04T11:33:37.291Z,13.80
2019-03-04T11:36:05.688Z,13.70
2019-03-04T11:38:39.463Z,13.60
2019-03-04T11:41:10.032Z,13.90
2019-03-04T11:43:38.450Z,14.20
2019-03-04T11:46:07.672Z,14.20
2019-03-04T11:48:36.104Z,14.00
2019-03-04T11:51:04.769Z,13.90
2019-03-04T11:53:33.184Z,13.90
2019-03-04T11:56:01.616Z,13.60
2019-03-04T11:58:30.006Z,13.50
2019-03-04T12:01:02.704Z,13.40
2019-03-04T12:03:31.263Z,13.20
2019-03-04T12:06:00.188Z,13.30
2019-03-04T12:08:28.588Z,13.40
2019-03-04T12:10:57.015Z,13.30
2019-03-04T12:13:25.410Z,13.40
2019-03-04T12:15:53.909Z,13.30
2019-03-04T12:18:22.319Z,13.30
2019-03-04T12:20:50.700Z,13.30
2019-03-04T12:23:20.077Z,13.20
2019-03-04T12:25:48.500Z,13.10
2019-03-04T12:28:18.396Z,13.00
2019-03-04T12:30:46.783Z,12.60
2019-03-04T12:33:15.186Z,11.80
2019-03-04T12:35:44.644Z,10.20
2019-03-04T12:38:13.044Z,8.20
2019-03-04T12:40:41.432Z,7.50
2019-03-04T12:43:09.863Z,7.10
2019-03-04T12:45:38.250Z,6.90
2019-03-04T12:48:07.552Z,6.80
2019-03-04T12:50:37.774Z,6.70
2019-03-04T12:53:06.331Z,6.70
2019-03-04T12:55:34.731Z,6.80
2019-03-04T12:58:03.584Z,6.90
2019-03-04T13:00:33.986Z,6.90
2019-03-04T13:03:02.428Z,7.00
2019-03-04T13:05:30.829Z,7.10
2019-03-04T13:07:59.236Z,7.30
2019-03-04T13:10:27.762Z,7.20
2019-03-04T13:12:56.153Z,7.30
2019-03-04T13:15:26.776Z,7.30
2019-03-04T13:17:56.071Z,7.30
2019-03-04T13:20:26.601Z,7.20
2019-03-04T13:22:55.057Z,7.20
2019-03-04T13:25:23.486Z,7.30
2019-03-04T13:27:51.924Z,7.30
2019-03-04T13:30:27.567Z,7.30
2019-03-04T13:32:56.027Z,7.40
2019-03-04T13:35:26.833Z,7.50
2019-03-04T13:37:55.321Z,7.50
2019-03-04T13:40:23.844Z,7.60
2019-03-04T13:42:52.657Z,7.70
2019-03-04T13:45:21.122Z,7.80
2019-03-04T13:47:49.509Z,7.70
2019-03-04T13:50:23.837Z,7.80
2019-03-04T13:52:52.232Z,7.80
2019-03-04T13:55:23.966Z,7.80
2019-03-04T13:57:52.554Z,7.90
2019-03-04T14:00:36.233Z,7.90
2019-03-04T14:03:04.901Z,7.90
2019-03-04T14:05:33.411Z,7.90
2019-03-04T14:08:01.853Z,8.00
2019-03-04T14:10:44.080Z,8.00
2019-03-04T14:13:12.672Z,8.10
2019-03-04T14:15:42.512Z,8.20
2019-03-04T14:18:10.908Z,8.30
2019-03-04T14:20:39.409Z,8.70
2019-03-04T14:23:08.264Z,9.20
2019-03-04T14:25:36.755Z,9.40
2019-03-04T14:28:05.249Z,9.40
2019-03-04T14:30:33.641Z,9.40
2019-03-04T14:33:02.043Z,9.60
2019-03-04T14:35:30.620Z,9.70
2019-03-04T14:37:59.304Z,9.80
2019-03-04T14:40:27.850Z,9.80
2019-03-04T14:42:56.263Z,10.40
2019-03-04T14:45:28.026Z,10.80
2019-03-04T14:47:56.457Z,10.60
2019-03-04T14:50:24.928Z,10.20
2019-03-04T14:52:53.326Z,10.10
2019-03-04T14:55:26.592Z,10.10
2019-03-04T14:57:54.981Z,9.90
2019-03-04T15:00:38.221Z,9.90
2019-03-04T15:03:06.784Z,9.80
2019-03-04T15:05:35.640Z,9.70
2019-03-04T15:08:04.496Z,9.70
2019-03-04T15:10:32.912Z,9.60
2019-03-04T15:13:01.828Z,9.50
2019-03-04T15:15:32.438Z,9.50
2019-03-04T15:18:01.044Z,9.50
2019-03-04T15:20:30.760Z,9.50
2019-03-04T15:22:59.157Z,9.50
2019-03-04T15:25:41.488Z,9.40
2019-03-04T15:28:17.711Z,9.50
2019-03-04T15:30:51.748Z,9.50
2019-03-04T15:33:20.258Z,9.60
2019-03-04T15:35:48.905Z,9.70
2019-03-04T15:38:18.037Z,9.80
2019-03-04T15:40:46.424Z,9.70
2019-03-04T15:43:14.822Z,9.60
2019-03-04T15:45:44.888Z,9.50
2019-03-04T15:48:14.068Z,9.50
2019-03-04T15:50:42.522Z,9.40
2019-03-04T15:53:10.964Z,9.30
2019-03-04T15:55:39.516Z,9.30
2019-03-04T15:58:08.020Z,9.30
2019-03-04T16:00:36.577Z,9.40
2019-03-04T16:03:05.841Z,9.40
2019-03-04T16:05:34.472Z,9.50
2019-03-04T16:08:07.518Z,9.50
2019-03-04T16:10:36.641Z,9.50
2019-03-04T16:13:06.628Z,9.60
2019-03-04T16:15:37.050Z,9.60
2019-03-04T16:18:05.509Z,9.70
2019-03-04T16:20:34.101Z,9.70
2019-03-04T16:23:02.492Z,9.80
2019-03-04T16:25:31.092Z,9.90
2019-03-04T16:28:02.898Z,9.90
2019-03-04T16:30:31.325Z,9.90
2019-03-04T16:32:59.717Z,9.90
2019-03-04T16:35:28.732Z,9.80
2019-03-04T16:37:57.179Z,9.90
2019-03-04T16:40:26.016Z,10.10
2019-03-04T16:42:54.442Z,10.20
2019-03-04T16:45:23.576Z,10.20
2019-03-04T16:47:52.164Z,10.10
2019-03-04T16:50:29.085Z,9.90
2019-03-04T16:53:00.278Z,9.80
2019-03-04T16:55:28.663Z,9.70
2019-03-04T16:57:57.443Z,9.50
2019-03-04T17:00:25.999Z,9.40
2019-03-04T17:02:54.402Z,9.40
2019-03-04T17:05:22.839Z,9.30
2019-03-04T17:07:51.242Z,9.20
2019-03-04T17:10:22.190Z,9.10
2019-03-04T17:12:50.903Z,9.10
2019-03-04T17:15:21.318Z,9.00
2019-03-04T17:17:50.081Z,8.90
2019-03-04T17:20:19.516Z,8.90
2019-03-04T17:22:48.011Z,8.80
2019-03-04T17:25:19.027Z,8.80
2019-03-04T17:27:47.848Z,8.80
2019-03-04T17:30:18.986Z,8.70
2019-03-04T17:32:47.509Z,8.70
2019-03-04T17:35:20.030Z,8.60
2019-03-04T17:37:48.642Z,8.60
2019-03-04T17:40:24.382Z,8.60
2019-03-04T17:42:52.777Z,8.60
2019-03-04T17:45:24.324Z,8.50
2019-03-04T17:47:52.947Z,8.50
2019-03-04T17:50:33.143Z,8.40
2019-03-04T17:53:02.571Z,8.50
2019-03-04T17:55:31.156Z,8.40
2019-03-04T17:57:59.579Z,8.40
2019-03-04T18:00:28.276Z,8.40
2019-03-04T18:02:56.848Z,8.40
2019-03-04T18:05:25.272Z,8.40
2019-03-04T18:07:53.659Z,8.40
2019-03-04T18:10:22.232Z,8.40
2019-03-04T18:12:53.153Z,8.40
2019-03-04T18:15:23.497Z,8.40
2019-03-04T18:17:51.973Z,8.40
2019-03-04T18:20:20.405Z,8.40
2019-03-04T18:22:48.868Z,8.40
2019-03-04T18:25:26.549Z,8.40
2019-03-04T18:27:58.438Z,8.40
2019-03-04T18:30:41.783Z,8.30
2019-03-04T18:33:13.377Z,8.40
2019-03-04T18:35:50.382Z,8.30
2019-03-04T18:38:28.116Z,8.30
2019-03-04T18:41:02.237Z,8.30
2019-03-04T18:43:48.584Z,8.30
2019-03-04T18:46:48.630Z,8.40
2019-03-04T18:49:17.016Z,8.30
2019-03-04T18:51:45.445Z,8.30
2019-03-04T18:54:13.979Z,8.30
2019-03-04T18:56:42.393Z,8.30
2019-03-04T18:59:10.820Z,8.30
2019-03-04T19:01:39.207Z,8.30
2019-03-04T19:04:07.597Z,8.30
2019-03-04T19:06:36.020Z,8.30
2019-03-04T19:09:06.176Z,8.20
2019-03-04T19:11:34.584Z,8.10
2019-03-04T19:14:03.544Z,8.10
2019-03-04T19:16:31.959Z,8.10
2019-03-04T19:19:00.421Z,8.10
2019-03-04T19:21:28.851Z,8.10
2019-03-04T19:23:57.236Z,8.00
2019-03-04T19:26:25.633Z,8.00
2019-03-04T19:28:54.523Z,8.10
2019-03-04T19:31:22.917Z,8.10
2019-03-04T19:33:51.308Z,8.10
2019-03-04T19:36:19.749Z,8.00
2019-03-04T19:38:48.138Z,8.00
2019-03-04T19:41:16.524Z,8.00
2019-03-04T19:43:44.988Z,8.00
2019-03-04T19:46:13.452Z,7.90
2019-03-04T19:48:41.906Z,7.90
2019-03-04T19:51:10.342Z,7.80
2019-03-04T19:53:38.798Z,7.70
2019-03-04T19:56:07.636Z,7.70
2019-03-04T19:58:36.056Z,7.60
2019-03-04T20:01:05.028Z,7.70
2019-03-04T20:03:33.408Z,7.70
2019-03-04T20:06:04.081Z,7.70
2019-03-04T20:08:32.636Z,7.60
2019-03-04T20:11:01.106Z,7.50
2019-03-04T20:13:29.513Z,7.50
2019-03-04T20:15:57.968Z,7.40
2019-03-04T20:18:26.357Z,7.40
2019-03-04T20:20:55.223Z,7.40
2019-03-04T20:23:23.617Z,7.50
2019-03-04T20:25:53.145Z,7.50
2019-03-04T20:28:21.569Z,7.60
2019-03-04T20:30:50.095Z,7.70
2019-03-04T20:33:18.864Z,7.70
2019-03-04T20:35:48.793Z,7.70
2019-03-04T20:38:20.257Z,7.80
2019-03-04T20:40:48.685Z,7.80
2019-03-04T20:43:17.105Z,7.80
2019-03-04T20:45:45.493Z,7.80
2019-03-04T20:48:13.975Z,7.90
2019-03-04T20:50:42.364Z,7.90
2019-03-04T20:53:10.765Z,7.90
2019-03-04T20:55:39.184Z,7.80
2019-03-04T20:58:07.740Z,7.90
2019-03-04T21:00:38.204Z,7.80
2019-03-04T21:03:07.621Z,7.90
2019-03-04T21:05:37.403Z,7.90
2019-03-04T21:08:07.142Z,7.90
2019-03-04T21:10:35.739Z,7.90
2019-03-04T21:13:18.480Z,7.90
2019-03-04T21:15:46.950Z,7.90
2019-03-04T21:18:15.411Z,7.90
2019-03-04T21:20:44.426Z,7.90
2019-03-04T21:23:12.984Z,7.90
2019-03-04T21:25:59.754Z,7.90
2019-03-04T21:28:49.516Z,7.90
2019-03-04T21:31:21.004Z,7.90
2019-03-04T21:34:11.338Z,7.90
2019-03-04T21:36:48.746Z,7.90
2019-03-04T21:39:36.310Z,7.90
2019-03-04T21:42:16.766Z,7.80
2019-03-04T21:45:00.605Z,7.80
2019-03-04T21:47:41.142Z,7.70
2019-03-04T21:50:12.646Z,7.70
2019-03-04T21:53:00.869Z,7.70
2019-03-04T21:55:36.605Z,7.70
2019-03-04T21:58:05.432Z,7.70
2019-03-04T22:00:35.992Z,7.80
2019-03-04T22:03:07.611Z,7.80
2019-03-04T22:05:37.055Z,7.80
2019-03-04T22:08:05.608Z,7.80
2019-03-04T22:10:34.106Z,7.80
2019-03-04T22:13:02.742Z,7.80
2019-03-04T22:15:31.192Z,7.80
2019-03-04T22:18:01.196Z,7.80
2019-03-04T22:20:29.924Z,7.70
2019-03-04T22:22:58.339Z,7.70
2019-03-04T22:25:26.742Z,7.70
2019-03-04T22:27:55.217Z,7.80
2019-03-04T22:30:23.600Z,7.80
2019-03-04T22:32:51.992Z,7.80
2019-03-04T22:35:20.452Z,7.80
2019-03-04T22:37:48.915Z,7.80
2019-03-04T22:40:28.637Z,7.80
2019-03-04T22:42:57.205Z,7.90
2019-03-04T22:45:25.597Z,7.80
2019-03-04T22:47:54.037Z,7.90
2019-03-04T22:50:22.895Z,7.80
2019-03-04T22:52:51.368Z,7.80
2019-03-04T22:55:28.663Z,7.80
2019-03-04T22:57:57.046Z,7.80
2019-03-04T23:00:54.620Z,7.80
2019-03-04T23:03:28.228Z,7.80
2019-03-04T23:06:08.620Z,7.80
2019-03-04T23:08:37.013Z,7.80
2019-03-04T23:11:05.684Z,7.80
2019-03-04T23:13:48.927Z,7.80
2019-03-04T23:16:20.651Z,7.80
2019-03-04T23:18:49.105Z,7.80
2019-03-04T23:21:17.604Z,7.80
2019-03-04T23:23:45.997Z,7.80
2019-03-04T23:26:14.388Z,7.80
2019-03-04T23:28:42.802Z,7.70
2019-03-04T23:31:11.256Z,7.70
2019-03-04T23:33:39.652Z,7.70
2019-03-04T23:36:08.076Z,7.70
2019-03-04T23:38:36.481Z,7.60
2019-03-04T23:41:04.940Z,7.60
2019-03-04T23:43:33.450Z,7.60
2019-03-04T23:46:01.835Z,7.70
2019-03-04T23:48:30.233Z,7.70
2019-03-04T23:50:58.791Z,7.70
2019-03-04T23:53:27.193Z,7.70
2019-03-04T23:55:55.596Z,7.70
2019-03-04T23:58:24.333Z,7.70
